首页
METAR-TAF:

METAR-TAF

机场 :

Whiteside County Airport (Jos. H. Bittorf Field)

Sterling / Rock Falls, 伊利诺伊州, 美国

纬度: 41-45N, 经度: 089-40W, 海拔: 197米

当前天气观测

该预报发布于52分钟前的03:56 UTC
风速6节,风向
温度 25°C
湿度 83%
气压 1011 hPa
能見度: 16.1公里
阴天层高于5500英尺

METAR: KSQI 250356Z AUTO 10006KT 10SM OVC055 25/22 A2985 RMK AO2 SLP972 T02500222 PNO $

时间: 23:48 (04:48 UTC)


TAF: 丢失

超过4000个机场的气象观测和天气预报(METAR&TAF报告)。

可查询的气象台以黄色和红色小点在地图上表示。

将鼠标移到小点上方,可查看气象台名称。

然后点击查看天气观测和预报。

如需切换地图:点击带黑十字的绿色按钮放大地图;点击带横线的绿色按钮缩小地图;或者点击绿色箭头查看邻近地区的地图。


METAR-TAF: